Time;durP1;ratioP1;P1;durP2;ratioP2;P2;SDS_P1;SDS_P2;PMS_P1;PMS_P2;Temp;Humidity;BMP_temperature;BMP_pressure;BME280_temperature;BME280_humidity;BME280_pressure;Samples;Min_cycle;Max_cycle;Signal;HPM_P1;HPM_P2
2023/06/27 00:02:06;;;;;;;5.30;1.77;;;;;;;17.52;66.37;99094.78;4918427;28;20254;-64
2023/06/27 00:04:33;;;;;;;5.67;1.77;;;;;;;17.55;66.06;99087.34;4912360;29;20266;-64
2023/06/27 00:06:59;;;;;;;6.40;2.10;;;;;;;17.52;65.36;99082.44;4916962;29;20235;-64
2023/06/27 00:09:26;;;;;;;3.37;2.00;;;;;;;17.50;65.36;99083.59;4911704;29;20758;-64
2023/06/27 00:11:52;;;;;;;4.03;2.00;;;;;;;17.51;65.95;99075.50;4914947;29;20239;-64
2023/06/27 00:14:19;;;;;;;6.43;2.00;;;;;;;17.55;66.25;99082.06;4910822;28;20232;-64
2023/06/27 00:16:49;;;;;;;4.27;1.67;;;;;;;17.50;65.08;99081.78;4915124;29;20230;-64
2023/06/27 00:19:15;;;;;;;5.83;2.00;;;;;;;17.46;65.67;99083.16;4910045;28;20591;-64
2023/06/27 00:21:42;;;;;;;5.20;1.80;;;;;;;17.48;67.27;99090.91;4915552;29;20240;-64
2023/06/27 00:24:09;;;;;;;5.27;2.10;;;;;;;17.45;67.69;99096.56;4912034;28;20226;-64
2023/06/27 00:26:36;;;;;;;6.27;2.00;;;;;;;17.45;66.75;99097.38;4912737;29;20694;-64
2023/06/27 00:29:03;;;;;;;4.20;2.00;;;;;;;17.44;67.34;99094.94;4913778;29;20646;-64
2023/06/27 00:31:29;;;;;;;6.80;1.90;;;;;;;17.44;67.34;99095.72;4910354;29;20240;-64
2023/06/27 00:34:01;;;;;;;5.20;1.90;;;;;;;17.41;66.32;99091.66;4909146;29;20230;-64
2023/06/27 00:36:27;;;;;;;5.37;2.00;;;;;;;17.41;67.17;99101.38;4910062;29;20247;-64
2023/06/27 00:38:59;;;;;;;6.23;2.10;;;;;;;17.43;67.68;99104.66;4911429;29;20238;-64
2023/06/27 00:41:26;;;;;;;4.87;1.80;;;;;;;17.39;67.81;99092.81;4908832;28;20595;-64
2023/06/27 00:43:56;;;;;;;8.67;1.70;;;;;;;17.37;67.60;99097.47;4911040;29;20801;-64
2023/06/27 00:46:32;;;;;;;5.57;2.17;;;;;;;17.38;68.24;99107.00;4908942;29;20233;-64
2023/06/27 00:49:01;;;;;;;7.07;2.20;;;;;;;17.39;69.09;99104.22;4918169;29;20239;-64
2023/06/27 00:51:28;;;;;;;3.97;2.20;;;;;;;17.47;68.30;99105.13;4908769;29;20332;-64
2023/06/27 00:53:59;;;;;;;6.80;1.93;;;;;;;17.50;69.60;99102.06;4912087;28;20242;-64
2023/06/27 00:56:27;;;;;;;5.73;2.13;;;;;;;17.46;69.23;99101.63;4916747;29;20315;-64
2023/06/27 00:59:00;;;;;;;5.73;2.17;;;;;;;17.45;68.84;99097.38;4922188;29;20343;-64
2023/06/27 01:01:29;;;;;;;4.67;2.10;;;;;;;17.44;69.97;99102.84;4926889;29;21303;-63
2023/06/27 01:04:01;;;;;;;5.33;1.90;;;;;;;17.45;68.84;99093.91;4930943;29;20244;-64
2023/06/27 01:06:34;;;;;;;4.50;2.17;;;;;;;17.38;69.15;99102.56;4929116;29;20238;-64
2023/06/27 01:09:06;;;;;;;7.87;2.03;;;;;;;17.34;68.73;99101.28;4931983;28;20239;-64
2023/06/27 01:11:40;;;;;;;4.17;2.03;;;;;;;17.37;68.96;99098.28;4931381;28;20249;-64
2023/06/27 01:14:09;;;;;;;6.87;2.20;;;;;;;17.38;69.92;99109.66;4933844;29;20235;-65
2023/06/27 01:16:38;;;;;;;5.77;2.00;;;;;;;17.43;70.05;99109.91;4932127;29;20237;-65
2023/06/27 01:19:12;;;;;;;6.67;2.10;;;;;;;17.36;69.95;99111.66;4934468;29;20243;-65
2023/06/27 01:21:40;;;;;;;3.30;2.00;;;;;;;17.40;68.00;99105.00;4929880;28;20732;-65
2023/06/27 01:24:10;;;;;;;3.60;1.80;;;;;;;17.33;67.95;99110.22;4919058;28;20234;-65
2023/06/27 01:26:37;;;;;;;6.77;1.90;;;;;;;17.34;68.14;99111.03;4934014;28;20249;-64
2023/06/27 01:29:03;;;;;;;4.77;1.83;;;;;;;17.34;68.75;99111.84;4937456;29;20231;-65
2023/06/27 01:31:36;;;;;;;6.20;2.20;;;;;;;17.34;69.52;99113.66;4927754;28;20238;-64
2023/06/27 01:34:08;;;;;;;6.67;2.10;;;;;;;17.36;69.27;99112.50;4929367;29;20230;-64
2023/06/27 01:36:42;;;;;;;8.50;2.23;;;;;;;17.45;71.35;99109.75;4922344;29;20225;-64
2023/06/27 01:39:16;;;;;;;11.40;1.80;;;;;;;17.44;70.33;99118.69;4928874;29;20240;-64
2023/06/27 01:41:47;;;;;;;5.73;1.93;;;;;;;17.40;69.31;99108.47;4944922;28;20586;-64
2023/06/27 01:44:17;;;;;;;4.10;1.67;;;;;;;17.41;69.90;99114.56;4920497;28;20302;-64
2023/06/27 01:46:45;;;;;;;5.60;2.13;;;;;;;17.37;70.22;99108.84;4948871;28;20298;-64
2023/06/27 01:49:12;;;;;;;5.47;2.57;;;;;;;17.36;69.46;99103.75;4946168;28;20223;-64
2023/06/27 01:51:40;;;;;;;5.53;2.53;;;;;;;17.36;71.29;99107.22;4930665;29;20239;-64
2023/06/27 01:54:06;;;;;;;4.70;2.20;;;;;;;17.35;71.22;99095.03;4931660;29;20695;-64
2023/06/27 01:56:35;;;;;;;6.07;2.33;;;;;;;17.35;70.13;99100.28;4929289;29;20238;-64
2023/06/27 01:59:02;;;;;;;8.83;2.60;;;;;;;17.32;69.69;99095.38;4933104;29;20228;-64
2023/06/27 02:01:29;;;;;;;6.03;1.93;;;;;;;17.35;70.75;99096.81;4918987;29;20243;-64
2023/06/27 02:04:01;;;;;;;4.17;1.80;;;;;;;17.24;71.12;99095.47;4931352;28;20237;-64
2023/06/27 02:06:27;;;;;;;3.67;1.90;;;;;;;17.20;70.83;99084.47;4928716;28;22739;-64
2023/06/27 02:08:59;;;;;;;7.67;1.90;;;;;;;17.20;72.39;99092.38;4931608;29;20259;-64
2023/06/27 02:11:26;;;;;;;5.57;1.90;;;;;;;17.20;72.25;99092.38;4928037;28;20234;-64
2023/06/27 02:13:59;;;;;;;5.67;2.37;;;;;;;17.21;71.83;99090.56;4930868;29;20255;-64
2023/06/27 02:16:26;;;;;;;4.17;2.00;;;;;;;17.21;71.94;99088.72;4926597;29;20238;-64
2023/06/27 02:18:52;;;;;;;7.90;2.50;;;;;;;17.18;71.21;99091.72;4924663;29;20245;-64
2023/06/27 02:21:19;;;;;;;6.00;2.20;;;;;;;17.14;71.15;99093.09;4924440;29;20337;-64
2023/06/27 02:23:45;;;;;;;5.20;2.47;;;;;;;17.09;70.91;99084.91;4931762;29;20238;-64
2023/06/27 02:26:12;;;;;;;6.93;2.17;;;;;;;17.05;72.42;99078.38;4927937;29;20244;-64
2023/06/27 02:28:39;;;;;;;3.67;1.90;;;;;;;16.92;72.33;99074.53;4927412;29;20231;-64
2023/06/27 02:31:06;;;;;;;5.77;2.00;;;;;;;16.92;72.78;99082.44;4929201;29;20258;-64
2023/06/27 02:33:33;;;;;;;5.43;2.10;;;;;;;16.85;72.86;99092.06;4925187;29;20235;-64
2023/06/27 02:36:01;;;;;;;4.77;2.67;;;;;;;16.84;72.98;99082.53;4930709;29;20298;-64
2023/06/27 02:38:28;;;;;;;4.33;2.40;;;;;;;16.80;73.52;99076.78;4925594;29;20241;-64
2023/06/27 02:40:55;;;;;;;4.33;1.67;;;;;;;16.73;73.35;99088.22;4929280;29;20294;-64
2023/06/27 02:43:21;;;;;;;3.53;1.90;;;;;;;16.67;74.04;99092.38;4926912;29;20225;-64
2023/06/27 02:45:48;;;;;;;6.80;2.23;;;;;;;16.63;74.59;99084.03;4927094;29;20230;-64
2023/06/27 02:48:16;;;;;;;7.33;2.20;;;;;;;16.57;74.04;99091.81;4928027;29;20222;-64
2023/06/27 02:50:46;;;;;;;6.23;2.03;;;;;;;16.47;74.47;99086.81;4930250;29;20245;-64
2023/06/27 02:53:12;;;;;;;5.43;2.37;;;;;;;16.43;73.45;99085.53;4925175;29;20353;-64
2023/06/27 02:55:39;;;;;;;5.17;2.20;;;;;;;16.33;73.71;99086.59;4932292;29;20672;-64
2023/06/27 02:58:06;;;;;;;5.23;2.33;;;;;;;16.23;73.27;99093.91;4932953;29;20230;-64
2023/06/27 03:00:32;;;;;;;6.50;2.00;;;;;;;16.24;73.89;99087.66;4925716;29;21249;-64
2023/06/27 03:02:59;;;;;;;3.50;2.10;;;;;;;16.30;75.21;99086.94;4930507;29;20318;-64
2023/06/27 03:05:28;;;;;;;3.83;2.10;;;;;;;16.11;75.38;99093.50;4926400;29;20226;-64
2023/06/27 03:07:55;;;;;;;5.47;2.03;;;;;;;16.08;74.54;99091.22;4919528;29;20706;-64
2023/06/27 03:10:21;;;;;;;3.53;1.87;;;;;;;16.06;74.53;99094.03;4930416;29;20239;-64
2023/06/27 03:12:49;;;;;;;6.93;2.27;;;;;;;16.03;75.11;99085.66;4929746;29;20784;-64
2023/06/27 03:15:16;;;;;;;2.80;1.80;;;;;;;16.03;75.23;99083.84;4916471;29;20323;-64
2023/06/27 03:17:44;;;;;;;7.67;2.33;;;;;;;15.98;74.79;99088.00;4913561;29;20685;-64
2023/06/27 03:20:11;;;;;;;5.40;2.00;;;;;;;16.02;76.18;99086.66;4916174;28;20536;-64
2023/06/27 03:22:40;;;;;;;5.43;2.20;;;;;;;15.97;76.10;99084.53;4929525;29;20925;-64
2023/06/27 03:25:10;;;;;;;6.23;2.40;;;;;;;15.87;76.11;99090.03;4926781;29;20232;-64
2023/06/27 03:27:36;;;;;;;5.33;2.70;;;;;;;15.87;76.05;99089.22;4927994;29;20232;-64
2023/06/27 03:32:53;;;;;;;6.07;2.60;;;;;;;15.69;78.63;99084.19;5076139;23;20228;-64
2023/06/27 03:35:20;;;;;;;3.83;1.93;;;;;;;15.71;79.00;99083.03;4960769;28;20230;-64
2023/06/27 03:37:50;;;;;;;4.23;2.43;;;;;;;15.76;78.74;99074.59;4964523;28;20232;-64
2023/06/27 03:40:17;;;;;;;8.63;2.33;;;;;;;15.66;79.81;99080.09;4962763;28;20231;-64
2023/06/27 03:42:44;;;;;;;5.60;2.23;;;;;;;15.67;80.48;99079.09;4951020;28;20271;-64
2023/06/27 03:45:11;;;;;;;8.93;2.23;;;;;;;15.69;79.83;99077.13;4932200;28;20247;-64
2023/06/27 03:47:39;;;;;;;5.50;2.13;;;;;;;15.68;78.85;99088.63;4952297;28;20240;-64
2023/06/27 03:50:06;;;;;;;5.10;2.20;;;;;;;15.69;79.16;99090.28;4947041;28;20574;-64
2023/06/27 03:52:33;;;;;;;7.47;2.30;;;;;;;15.73;80.35;99088.09;4938307;28;20239;-64
2023/06/27 03:55:04;;;;;;;5.70;2.03;;;;;;;15.73;79.84;99093.38;4940902;28;20233;-64
2023/06/27 03:57:30;;;;;;;5.30;2.57;;;;;;;15.70;80.43;99098.97;4944452;28;20241;-64
2023/06/27 03:59:57;;;;;;;6.70;2.17;;;;;;;15.75;80.56;99102.75;4953377;28;20262;-64
2023/06/27 04:02:24;;;;;;;6.77;2.47;;;;;;;15.81;80.14;99103.84;4945823;28;20331;-64
2023/06/27 04:04:51;;;;;;;6.17;2.13;;;;;;;15.80;79.25;99096.94;4958995;28;20623;-64
2023/06/27 04:07:17;;;;;;;5.07;2.30;;;;;;;15.81;79.98;99098.59;4947621;28;20224;-64
2023/06/27 04:09:46;;;;;;;4.93;2.20;;;;;;;15.90;79.30;99096.78;4947371;28;20873;-64
2023/06/27 04:12:14;;;;;;;5.13;2.37;;;;;;;15.86;79.69;99098.88;4942549;28;20244;-64
2023/06/27 04:14:40;;;;;;;5.43;2.50;;;;;;;15.87;79.56;99105.03;4943207;28;20245;-64
2023/06/27 04:17:07;;;;;;;5.23;2.50;;;;;;;15.93;78.92;99113.03;4949821;28;20241;-64
2023/06/27 04:19:34;;;;;;;4.53;2.03;;;;;;;15.93;79.07;99099.88;4959183;28;20310;-64
2023/06/27 04:22:03;;;;;;;6.00;2.20;;;;;;;15.96;80.06;99103.97;4944908;28;20239;-64
2023/06/27 04:24:30;;;;;;;9.97;2.30;;;;;;;16.02;79.98;99103.25;4931362;28;20243;-64
2023/06/27 04:26:57;;;;;;;7.43;2.20;;;;;;;16.06;79.42;99094.03;4896438;28;20235;-64
2023/06/27 04:29:25;;;;;;;6.57;2.43;;;;;;;16.14;80.28;99100.22;4944042;28;20292;-64
2023/06/27 04:31:51;;;;;;;6.27;2.30;;;;;;;16.20;78.80;99105.63;4952906;28;20244;-64
2023/06/27 04:34:18;;;;;;;4.17;2.13;;;;;;;16.25;79.70;99101.66;4953054;28;20240;-64
2023/06/27 04:36:44;;;;;;;4.60;2.37;;;;;;;16.26;79.59;99106.72;4954209;28;21093;-64
2023/06/27 04:39:11;;;;;;;6.13;2.30;;;;;;;16.34;79.81;99100.59;4938187;28;20304;-64
2023/06/27 04:41:38;;;;;;;6.90;2.30;;;;;;;16.29;77.82;99106.38;4938891;28;20237;-64
2023/06/27 04:44:05;;;;;;;8.13;2.43;;;;;;;16.36;77.18;99114.41;4944493;28;20232;-64
2023/06/27 04:46:33;;;;;;;9.23;2.73;;;;;;;16.38;77.70;99117.69;4943852;28;20721;-64
2023/06/27 04:49:00;;;;;;;5.60;2.90;;;;;;;16.46;77.83;99117.59;4947101;28;20360;-64
2023/06/27 04:51:28;;;;;;;6.70;2.50;;;;;;;16.57;77.69;99124.28;4939147;28;23268;-64
2023/06/27 04:54:00;;;;;;;4.50;1.90;;;;;;;16.68;77.99;99128.28;4950117;28;20236;-64
2023/06/27 04:56:26;;;;;;;6.77;2.53;;;;;;;16.71;78.27;99124.50;4943126;28;20300;-64
2023/06/27 04:58:59;;;;;;;6.68;2.35;;;;;;;16.67;78.12;99113.47;4940568;28;20451;-64
2023/06/27 05:01:26;;;;;;;3.40;2.13;;;;;;;16.72;78.30;99112.97;4948790;28;20293;-64
2023/06/27 05:04:19;;;;;;;6.93;2.63;;;;;;;16.74;79.45;99126.78;4942427;28;20251;-64
2023/06/27 05:06:46;;;;;;;5.43;2.03;;;;;;;16.75;77.82;99118.69;4935685;28;20240;-64
2023/06/27 05:09:13;;;;;;;6.07;2.30;;;;;;;16.78;76.15;99114.88;4945899;28;20251;-64
2023/06/27 05:11:39;;;;;;;3.33;2.20;;;;;;;16.81;76.34;99103.97;4950229;28;20713;-64
2023/06/27 05:14:06;;;;;;;8.13;2.30;;;;;;;16.81;76.57;99103.97;4948362;28;20249;-64
2023/06/27 05:16:32;;;;;;;5.30;2.40;;;;;;;16.89;77.15;99111.81;4939117;28;20268;-64
2023/06/27 05:19:00;;;;;;;3.93;2.17;;;;;;;16.90;78.13;99115.25;4950273;28;20238;-64
2023/06/27 05:21:29;;;;;;;5.73;2.17;;;;;;;16.93;79.85;99115.72;4945194;28;20416;-64
2023/06/27 05:23:59;;;;;;;6.93;2.20;;;;;;;17.09;78.26;99122.66;4953475;28;20248;-64
2023/06/27 05:26:26;;;;;;;3.87;2.00;;;;;;;17.26;77.48;99130.41;4947193;28;20341;-64
2023/06/27 05:28:57;;;;;;;5.23;2.37;;;;;;;17.41;76.76;99131.22;4949320;28;20242;-64
2023/06/27 05:31:24;;;;;;;5.20;2.50;;;;;;;17.62;75.59;99128.84;4943452;28;20242;-64
2023/06/27 05:33:50;;;;;;;6.83;2.50;;;;;;;17.76;74.21;99135.09;4946896;28;20650;-64
2023/06/27 05:36:17;;;;;;;8.37;2.63;;;;;;;17.87;73.57;99123.25;4941336;28;20769;-64
2023/06/27 05:38:45;;;;;;;4.63;2.27;;;;;;;17.91;73.93;99121.88;4948379;28;21160;-64
2023/06/27 05:41:11;;;;;;;7.00;2.53;;;;;;;18.06;74.94;99133.22;4947987;28;20231;-64
2023/06/27 05:43:38;;;;;;;3.77;2.40;;;;;;;18.26;74.23;99130.78;4950606;28;20240;-64
2023/06/27 05:46:04;;;;;;;4.47;2.27;;;;;;;18.53;73.49;99138.13;4948560;28;20226;-64
2023/06/27 05:48:31;;;;;;;4.33;2.23;;;;;;;18.70;72.17;99139.50;4946983;28;20233;-64
2023/06/27 05:50:58;;;;;;;7.37;2.30;;;;;;;18.77;70.55;99136.91;4948155;28;20238;-64
2023/06/27 05:53:24;;;;;;;4.80;2.10;;;;;;;18.85;69.15;99141.25;4948818;28;20241;-64
2023/06/27 05:55:52;;;;;;;5.13;2.10;;;;;;;18.94;69.45;99142.75;4948427;28;20230;-64
2023/06/27 05:58:19;;;;;;;5.47;2.10;;;;;;;19.06;68.00;99143.03;4944387;28;20345;-64
2023/06/27 06:00:46;;;;;;;4.30;2.20;;;;;;;19.20;65.78;99145.78;4947221;28;20314;-64
2023/06/27 06:03:14;;;;;;;7.40;2.30;;;;;;;19.39;64.76;99142.44;4943962;28;20231;-64
2023/06/27 06:05:40;;;;;;;5.27;2.63;;;;;;;19.23;62.60;99145.38;4955057;28;20228;-64
2023/06/27 06:08:07;;;;;;;11.10;2.50;;;;;;;19.32;61.29;99150.31;4950137;28;20716;-64
2023/06/27 06:10:33;;;;;;;6.67;2.63;;;;;;;19.27;61.39;99147.44;4949684;28;20230;-65
2023/06/27 06:13:01;;;;;;;6.50;2.57;;;;;;;19.22;62.31;99139.28;4946992;28;20238;-64
2023/06/27 06:15:28;;;;;;;7.63;2.40;;;;;;;19.45;62.12;99140.81;4947392;28;20242;-65
2023/06/27 06:17:55;;;;;;;5.53;2.37;;;;;;;19.70;60.72;99156.22;4948704;28;20238;-65
2023/06/27 06:20:21;;;;;;;8.00;2.73;;;;;;;19.90;60.63;99158.97;4954329;28;20235;-64
2023/06/27 06:22:48;;;;;;;6.67;2.50;;;;;;;20.04;60.26;99163.28;4954013;28;20288;-64
2023/06/27 06:25:14;;;;;;;5.50;2.40;;;;;;;20.05;58.92;99162.28;4950233;28;20300;-64
2023/06/27 06:27:41;;;;;;;3.47;2.13;;;;;;;20.21;58.72;99162.94;4955067;28;20653;-64
2023/06/27 06:30:10;;;;;;;7.93;2.47;;;;;;;20.35;58.74;99161.09;4946778;28;20238;-64
2023/06/27 06:32:36;;;;;;;3.53;2.30;;;;;;;20.34;57.78;99159.47;4954518;28;20250;-64
2023/06/27 06:35:04;;;;;;;7.87;3.03;;;;;;;20.39;57.81;99157.03;4952974;28;20568;-64
2023/06/27 06:37:30;;;;;;;7.90;2.87;;;;;;;20.44;56.41;99149.28;4948493;28;20246;-64
2023/06/27 06:39:57;;;;;;;5.10;2.50;;;;;;;20.42;56.29;99143.38;4944024;28;20631;-64
2023/06/27 06:42:23;;;;;;;6.07;2.30;;;;;;;20.52;55.72;99148.28;4940754;28;20635;-64
2023/06/27 06:44:50;;;;;;;6.30;2.07;;;;;;;20.44;56.92;99148.50;4950200;28;20753;-64
2023/06/27 06:47:18;;;;;;;9.10;2.50;;;;;;;20.46;57.21;99144.59;4945688;28;20638;-64
2023/06/27 06:49:44;;;;;;;5.80;2.47;;;;;;;20.35;57.71;99142.56;4952616;28;20286;-64
2023/06/27 06:52:11;;;;;;;5.67;2.63;;;;;;;20.26;56.87;99143.75;4944076;28;20241;-64
2023/06/27 06:54:38;;;;;;;6.80;2.57;;;;;;;20.26;57.24;99146.41;4944550;28;20234;-64
2023/06/27 06:57:06;;;;;;;6.40;2.83;;;;;;;20.52;55.99;99152.78;4948557;28;20254;-64
2023/06/27 06:59:32;;;;;;;6.20;2.27;;;;;;;20.49;57.46;99152.16;4946398;28;20235;-64
2023/06/27 07:01:59;;;;;;;4.90;2.20;;;;;;;20.62;57.70;99148.72;4947775;28;20238;-64
2023/06/27 07:04:27;;;;;;;3.77;2.20;;;;;;;20.92;55.77;99148.31;4951404;28;20230;-64
2023/06/27 07:06:53;;;;;;;6.60;2.80;;;;;;;20.74;56.51;99140.94;4946026;28;20266;-64
2023/06/27 07:09:20;;;;;;;11.70;2.70;;;;;;;20.88;56.61;99141.78;4946521;28;20228;-64
2023/06/27 07:11:48;;;;;;;4.07;2.20;;;;;;;20.83;55.51;99144.22;4952781;28;20243;-64
2023/06/27 07:14:17;;;;;;;7.60;2.20;;;;;;;20.63;57.21;99142.38;4951135;28;20549;-64
2023/06/27 07:16:44;;;;;;;6.77;2.37;;;;;;;20.63;56.49;99144.22;4954101;28;20231;-64
2023/06/27 07:19:11;;;;;;;7.50;2.53;;;;;;;20.83;57.16;99148.72;4951875;28;20287;-64
2023/06/27 07:21:39;;;;;;;12.30;2.90;;;;;;;20.98;55.38;99149.34;4947037;28;20292;-65
2023/06/27 07:24:06;;;;;;;7.97;2.63;;;;;;;20.83;56.29;99140.78;4946395;28;20596;-64
2023/06/27 07:26:33;;;;;;;7.87;2.60;;;;;;;20.68;55.61;99141.75;4945802;28;20235;-64
2023/06/27 07:28:59;;;;;;;6.90;2.10;;;;;;;20.82;55.03;99150.56;4952487;28;20238;-64
2023/06/27 07:31:26;;;;;;;5.63;2.50;;;;;;;20.78;56.33;99149.31;4947976;28;20718;-64
2023/06/27 07:33:53;;;;;;;7.40;2.70;;;;;;;20.74;56.35;99142.75;4951894;28;20236;-64
2023/06/27 07:36:20;;;;;;;8.37;2.40;;;;;;;20.81;57.23;99135.66;4951442;28;20235;-65
2023/06/27 07:38:48;;;;;;;8.47;2.50;;;;;;;20.88;56.62;99140.97;4952953;28;20241;-65
2023/06/27 07:41:14;;;;;;;7.83;2.90;;;;;;;20.53;56.72;99144.63;4944684;28;20236;-64
2023/06/27 07:43:41;;;;;;;7.10;3.00;;;;;;;20.05;58.03;99138.44;4950036;28;20237;-64
2023/06/27 07:46:07;;;;;;;7.13;2.70;;;;;;;20.60;58.40;99139.31;4943589;28;20231;-64
2023/06/27 07:48:34;;;;;;;7.47;2.60;;;;;;;20.60;56.45;99139.31;4943012;28;20227;-64
2023/06/27 07:51:01;;;;;;;7.10;2.60;;;;;;;20.56;56.49;99143.38;4946491;28;20246;-64
2023/06/27 07:53:27;;;;;;;10.70;2.70;;;;;;;20.75;56.17;99141.75;4941787;28;20243;-64
2023/06/27 07:55:55;;;;;;;7.17;2.40;;;;;;;20.81;55.81;99146.25;4946317;28;20307;-64
2023/06/27 07:58:22;;;;;;;7.97;2.83;;;;;;;20.95;53.20;99152.41;4946365;28;20289;-64
2023/06/27 08:00:49;;;;;;;9.23;2.70;;;;;;;20.87;54.18;99155.25;4946673;28;20327;-64
2023/06/27 08:03:15;;;;;;;5.03;2.80;;;;;;;20.47;54.39;99143.59;4945448;28;20240;-64
2023/06/27 08:05:42;;;;;;;8.40;2.70;;;;;;;20.78;55.01;99141.38;4944730;28;20230;-64
2023/06/27 08:08:08;;;;;;;6.30;2.63;;;;;;;20.84;54.58;99131.78;4945810;28;20236;-64
2023/06/27 08:10:35;;;;;;;7.57;2.90;;;;;;;20.98;53.74;99133.41;4952285;28;20244;-64
2023/06/27 08:13:03;;;;;;;5.87;2.30;;;;;;;21.02;53.96;99120.53;4954051;28;20247;-64
2023/06/27 08:15:30;;;;;;;5.13;2.23;;;;;;;21.07;52.08;99118.91;4948410;28;20238;-64
2023/06/27 08:17:57;;;;;;;4.77;2.23;;;;;;;20.98;52.41;99122.78;4942254;28;20244;-64
2023/06/27 08:20:23;;;;;;;5.70;2.73;;;;;;;20.89;51.82;99116.06;4943072;28;20235;-64
2023/06/27 08:22:50;;;;;;;7.80;2.60;;;;;;;21.21;52.75;99116.19;4950574;28;20264;-64
2023/06/27 08:25:17;;;;;;;7.93;2.57;;;;;;;21.29;53.14;99121.28;4941698;28;20238;-64
2023/06/27 08:27:43;;;;;;;7.97;2.80;;;;;;;21.39;52.12;99113.69;4945868;28;20234;-64
2023/06/27 08:30:12;;;;;;;6.93;2.30;;;;;;;21.65;50.76;99114.66;4941831;28;20247;-64
2023/06/27 08:32:39;;;;;;;6.77;2.70;;;;;;;21.69;50.00;99112.41;4943247;28;20243;-64
2023/06/27 08:35:06;;;;;;;6.23;2.57;;;;;;;21.80;49.63;99116.22;4945025;28;20228;-65
2023/06/27 08:37:33;;;;;;;4.53;2.43;;;;;;;21.48;50.89;99114.28;4939275;28;20239;-65
2023/06/27 08:40:00;;;;;;;8.00;3.13;;;;;;;21.94;49.51;99115.13;4946720;28;20233;-66
2023/06/27 08:42:27;;;;;;;6.07;2.67;;;;;;;22.35;47.75;99110.34;4938570;28;20772;-65
2023/06/27 08:44:54;;;;;;;8.70;2.87;;;;;;;22.40;48.58;99117.66;4946970;28;20823;-65
2023/06/27 08:47:25;;;;;;;7.40;2.33;;;;;;;23.00;48.12;99116.38;4940009;28;20574;-65
2023/06/27 08:49:57;;;;;;;11.87;2.70;;;;;;;23.37;46.87;99115.59;4948636;28;20238;-65
2023/06/27 08:52:25;;;;;;;8.67;2.70;;;;;;;23.61;45.56;99110.38;4946482;28;20271;-65
2023/06/27 08:54:54;;;;;;;7.80;2.40;;;;;;;23.99;45.10;99118.09;4946919;28;20284;-65
2023/06/27 08:57:26;;;;;;;4.90;2.53;;;;;;;24.20;44.79;99110.63;4942028;28;20225;-65
2023/06/27 08:59:55;;;;;;;8.27;2.90;;;;;;;24.20;42.23;99110.63;4949244;28;20245;-66
2023/06/27 09:02:24;;;;;;;4.37;2.33;;;;;;;23.77;43.67;99109.78;4942965;28;20290;-67
2023/06/27 09:04:51;;;;;;;7.93;2.40;;;;;;;23.41;46.02;99098.13;4941175;28;20237;-66
2023/06/27 09:07:18;;;;;;;7.03;2.80;;;;;;;23.80;45.20;99105.81;4945126;28;20226;-66
2023/06/27 09:09:45;;;;;;;7.03;2.87;;;;;;;23.00;45.52;99103.84;4940002;28;20232;-67
2023/06/27 09:12:13;;;;;;;5.30;3.03;;;;;;;23.32;45.06;99105.59;4942262;28;20580;-67
2023/06/27 09:14:40;;;;;;;6.53;2.93;;;;;;;23.43;45.03;99098.72;4941627;28;20240;-67
2023/06/27 09:17:06;;;;;;;8.83;2.70;;;;;;;23.66;44.17;99099.88;4939328;28;20298;-67
2023/06/27 09:19:36;;;;;;;9.13;2.50;;;;;;;24.21;43.43;99098.91;4945582;28;20783;-67
2023/06/27 09:22:03;;;;;;;11.83;2.93;;;;;;;24.21;44.47;99106.91;4966514;28;20234;-67
2023/06/27 09:24:31;;;;;;;5.73;2.37;;;;;;;23.89;43.33;99099.13;4947272;28;20231;-67
2023/06/27 09:26:58;;;;;;;10.40;2.63;;;;;;;23.61;44.25;99102.41;4949763;28;20227;-67
2023/06/27 09:29:31;;;;;;;7.17;2.50;;;;;;;24.21;42.89;99100.75;4946420;28;20301;-67
2023/06/27 09:32:05;;;;;;;7.50;2.27;;;;;;;24.36;42.22;99113.69;4955159;28;20245;-67
2023/06/27 09:34:34;;;;;;;7.27;2.37;;;;;;;24.17;43.55;99106.53;4951027;28;20885;-67
2023/06/27 09:37:02;;;;;;;7.83;2.43;;;;;;;24.84;41.56;99109.22;4953525;28;20273;-67
2023/06/27 09:39:28;;;;;;;4.73;2.67;;;;;;;24.69;41.18;99106.94;4945230;28;20243;-67
2023/06/27 09:41:55;;;;;;;8.30;2.17;;;;;;;24.31;44.93;99099.16;4948995;28;20698;-67
2023/06/27 09:44:24;;;;;;;6.97;2.37;;;;;;;24.17;45.38;99105.75;4948912;28;20217;-67
2023/06/27 09:46:52;;;;;;;6.23;2.70;;;;;;;23.99;43.92;99104.78;4953409;28;20233;-67
2023/06/27 09:49:20;;;;;;;7.03;3.20;;;;;;;24.61;41.69;99106.25;4945523;28;20789;-67
2023/06/27 09:51:49;;;;;;;8.07;2.60;;;;;;;24.53;42.11;99108.47;4954930;28;20326;-67
2023/06/27 09:54:20;;;;;;;7.63;2.37;;;;;;;24.75;41.54;99114.06;4946125;28;20226;-67
2023/06/27 09:56:50;;;;;;;3.83;2.47;;;;;;;24.84;38.91;99118.00;4946018;28;20233;-67
2023/06/27 09:59:18;;;;;;;7.03;2.10;;;;;;;25.00;39.74;152272.84;4954062;28;20325;-67
2023/06/27 10:01:45;;;;;;;6.77;2.07;;;;;;;25.52;38.72;152398.53;4950444;28;20234;-67
2023/06/27 10:04:11;;;;;;;4.10;2.17;;;;;;;25.44;39.73;152378.38;4948700;28;20235;-67
2023/06/27 10:06:38;;;;;;;3.20;2.10;;;;;;;25.65;39.12;152429.91;4947070;28;20578;-67
2023/06/27 10:09:06;;;;;;;7.70;2.63;;;;;;;25.12;39.25;152301.78;4949008;28;20326;-67
2023/06/27 10:11:33;;;;;;;6.22;2.42;;;;;;;24.93;39.39;152255.25;4946374;28;20248;-67
2023/06/27 10:14:00;;;;;;;7.33;2.23;;;;;;;25.23;40.14;152328.13;4942849;28;20252;-67
2023/06/27 10:16:27;;;;;;;6.53;2.60;;;;;;;24.96;39.42;152261.56;4943420;28;20294;-68
2023/06/27 10:19:01;;;;;;;6.30;2.20;;;;;;;25.52;39.18;152397.25;4954334;28;20303;-67
2023/06/27 10:21:29;;;;;;;7.37;2.03;;;;;;;26.04;37.27;152524.13;4949043;28;21454;-67
2023/06/27 10:24:02;;;;;;;10.43;2.03;;;;;;;25.94;36.87;152501.56;4950478;28;20234;-67
2023/06/27 10:26:30;;;;;;;5.93;2.25;;;;;;;25.74;36.22;152451.28;4950149;28;20330;-67
2023/06/27 10:28:59;;;;;;;5.07;2.30;;;;;;;25.68;36.91;152437.44;4950070;28;20269;-67
2023/06/27 10:31:39;;;;;;;7.73;2.20;;;;;;;25.64;37.73;152428.69;4946099;28;20238;-67
2023/06/27 10:34:06;;;;;;;9.18;2.20;;;;;;;25.51;38.17;152396.00;4948549;28;20302;-67
2023/06/27 10:36:50;;;;;;;4.87;2.30;;;;;;;25.57;38.63;152411.09;4944865;28;20714;-67
2023/06/27 10:39:28;;;;;;;8.37;2.10;;;;;;;25.64;37.94;152427.41;4946474;28;20215;-67
2023/06/27 10:42:07;;;;;;;4.97;2.23;;;;;;;25.69;37.66;152438.72;4945991;28;20297;-67
2023/06/27 10:44:49;;;;;;;5.37;2.03;;;;;;;24.86;37.20;152237.72;4944954;28;20234;-67
2023/06/27 10:47:34;;;;;;;6.03;2.23;;;;;;;24.91;37.60;152251.53;4933013;28;20296;-67
2023/06/27 10:50:12;;;;;;;6.83;2.10;;;;;;;25.00;37.37;152272.84;4950539;28;20793;-67
2023/06/27 10:52:39;;;;;;;5.70;2.20;;;;;;;26.01;35.59;152516.59;4951210;28;20242;-67
2023/06/27 10:55:23;;;;;;;5.03;2.17;;;;;;;25.70;36.28;152442.47;4945456;28;20243;-67
2023/06/27 10:58:02;;;;;;;7.70;1.83;;;;;;;25.07;36.33;152289.22;4944252;28;20244;-67
2023/06/27 11:00:32;;;;;;;5.70;2.10;;;;;;;25.39;36.13;152367.09;4940514;28;20245;-67
2023/06/27 11:03:01;;;;;;;7.27;2.30;;;;;;;25.43;36.12;152377.16;4947409;28;20244;-67
2023/06/27 11:05:39;;;;;;;5.53;2.13;;;;;;;25.50;37.07;152394.72;4944188;28;20239;-67
2023/06/27 11:08:10;;;;;;;5.13;2.00;;;;;;;25.52;35.75;152398.53;4942995;28;20235;-67
2023/06/27 11:10:37;;;;;;;3.97;1.90;;;;;;;25.84;36.70;152476.44;4943670;28;20247;-67
2023/06/27 11:13:21;;;;;;;5.17;2.03;;;;;;;25.75;34.14;152453.81;4953704;28;20243;-67
2023/06/27 11:15:49;;;;;;;5.23;1.87;;;;;;;25.62;35.83;152422.38;4943857;28;20325;-67
2023/06/27 11:18:16;;;;;;;6.40;2.20;;;;;;;26.14;34.61;152549.31;4945836;28;20256;-67
2023/06/27 11:20:44;;;;;;;4.87;2.43;;;;;;;26.14;33.23;152549.31;4953660;28;20239;-67
2023/06/27 11:23:12;;;;;;;3.97;1.88;;;;;;;26.68;35.35;152681.28;4952150;28;20227;-67
2023/06/27 11:25:42;;;;;;;4.53;2.10;;;;;;;26.29;34.62;152585.78;4947447;28;20243;-67
2023/06/27 11:28:09;;;;;;;4.75;2.40;;;;;;;26.18;35.29;152558.13;4943399;28;20248;-67
2023/06/27 11:30:37;;;;;;;4.17;1.87;;;;;;;26.11;35.13;152540.50;4948282;28;20229;-67
2023/06/27 11:33:04;;;;;;;6.90;1.90;;;;;;;26.55;32.29;152647.34;4944999;28;20622;-67
2023/06/27 11:35:32;;;;;;;5.10;1.80;;;;;;;26.80;34.53;152710.22;4942966;28;20240;-67
2023/06/27 11:37:59;;;;;;;4.17;2.10;;;;;;;26.45;31.43;152624.72;4954658;28;21172;-67
2023/06/27 11:40:27;;;;;;;4.53;1.80;;;;;;;26.08;32.63;152534.19;4942812;28;20231;-67